Time;durP1;ratioP1;P1;durP2;ratioP2;P2;SDS_P1;SDS_P2;PMS_P1;PMS_P2;Temp;Humidity;BMP_temperature;BMP_pressure;BME280_temperature;BME280_humidity;BME280_pressure;Samples;Min_cycle;Max_cycle;Signal;HPM_P1;HPM_P2
2022/02/21 00:00:18;;;;;;;2.15;1.13;;;;;;;7.58;43.73;91999.63;2052176;70;20160;-70
2022/02/21 00:02:50;;;;;;;0.80;0.60;;;;;;;7.59;43.40;91991.97;2052161;70;20219;-71
2022/02/21 00:05:15;;;;;;;1.00;0.60;;;;;;;7.76;43.09;91979.66;2065184;69;20233;-72
2022/02/21 00:07:44;;;;;;;1.88;1.05;;;;;;;7.38;44.34;91970.44;2052083;69;20146;-70
2022/02/21 00:10:11;;;;;;;1.40;0.77;;;;;;;7.53;43.87;91958.00;2052233;69;20152;-73
2022/02/21 00:12:38;;;;;;;1.10;0.80;;;;;;;7.40;44.45;91945.34;2052148;69;20247;-72
2022/02/21 00:15:04;;;;;;;1.55;0.98;;;;;;;7.36;44.26;91943.00;2052156;69;20600;-71
2022/02/21 00:17:30;;;;;;;1.60;1.00;;;;;;;6.98;45.24;91943.47;2052191;70;20706;-70
2022/02/21 00:19:56;;;;;;;1.40;0.93;;;;;;;7.35;44.52;91921.22;2052183;69;20225;-70
2022/02/21 00:22:22;;;;;;;2.50;0.93;;;;;;;7.67;43.05;91932.91;2052198;70;20229;-70
2022/02/21 00:24:47;;;;;;;1.10;0.65;;;;;;;7.58;43.38;91938.03;2052027;70;20173;-70
2022/02/21 00:27:13;;;;;;;1.20;0.77;;;;;;;7.44;43.20;91925.97;2052014;69;20149;-71
2022/02/21 00:29:39;;;;;;;1.30;0.80;;;;;;;7.52;41.21;91925.75;2065089;69;20140;-70
2022/02/21 00:32:05;;;;;;;1.33;0.80;;;;;;;7.55;41.36;91913.28;2052108;69;20154;-71
2022/02/21 00:34:30;;;;;;;1.52;1.00;;;;;;;7.64;41.27;91907.56;2052150;70;20631;-71
2022/02/21 00:36:56;;;;;;;1.20;0.73;;;;;;;7.75;41.07;91922.19;2052160;70;20182;-70
2022/02/21 00:39:23;;;;;;;1.27;0.90;;;;;;;7.53;40.91;91916.72;2052037;69;20265;-70
2022/02/21 00:41:48;;;;;;;1.02;0.80;;;;;;;7.83;41.03;91911.41;2052174;70;20623;-72
2022/02/21 00:44:14;;;;;;;1.40;1.00;;;;;;;7.70;41.26;91920.47;2052164;70;20154;-72
2022/02/21 00:46:39;;;;;;;1.20;0.80;;;;;;;7.72;41.62;91935.31;2052133;70;20158;-71
2022/02/21 00:49:06;;;;;;;3.15;1.00;;;;;;;7.82;41.52;91915.56;2052184;70;20146;-71
2022/02/21 00:51:32;;;;;;;0.80;0.80;;;;;;;7.84;41.60;91912.91;2052047;70;20159;-70
2022/02/21 00:53:58;;;;;;;1.55;1.05;;;;;;;7.88;41.75;91907.53;2052003;70;20166;-71
2022/02/21 00:56:24;;;;;;;1.92;0.90;;;;;;;7.95;40.86;91888.97;2052077;70;20153;-70
2022/02/21 00:58:50;;;;;;;1.27;0.80;;;;;;;8.09;40.51;91882.09;2052117;70;20147;-71
2022/02/21 01:01:16;;;;;;;2.78;1.00;;;;;;;7.70;41.68;91884.03;2052050;70;20497;-73
2022/02/21 01:03:42;;;;;;;1.10;0.73;;;;;;;7.16;44.07;91894.22;2064846;69;20215;-71
2022/02/21 01:06:08;;;;;;;1.75;0.93;;;;;;;7.35;43.76;91877.16;2052101;70;20162;-71
2022/02/21 01:08:34;;;;;;;1.08;0.80;;;;;;;7.55;42.94;91879.69;2051950;70;20592;-71
2022/02/21 01:10:59;;;;;;;1.23;0.90;;;;;;;7.59;43.52;91874.31;2051991;70;20510;-71
2022/02/21 01:13:25;;;;;;;1.55;0.80;;;;;;;7.59;43.18;91860.31;2065107;69;20490;-71
2022/02/21 01:15:53;;;;;;;2.85;0.90;;;;;;;7.34;43.64;91864.50;2052097;69;20224;-71
2022/02/21 01:18:20;;;;;;;1.75;0.93;;;;;;;7.54;43.55;91856.56;2052012;69;20147;-71
2022/02/21 01:20:46;;;;;;;1.13;0.80;;;;;;;7.64;41.89;91850.81;2052070;69;20573;-72
2022/02/21 01:23:11;;;;;;;1.33;0.80;;;;;;;7.68;41.81;91842.63;2052017;69;20605;-70
2022/02/21 01:25:37;;;;;;;1.90;0.73;;;;;;;7.67;42.67;91841.19;2052050;70;20166;-70
2022/02/21 01:28:03;;;;;;;1.50;0.77;;;;;;;7.54;42.34;91853.75;2052042;70;20523;-70
2022/02/21 01:30:29;;;;;;;1.60;0.90;;;;;;;7.42;43.70;91850.22;2052037;70;20147;-71
2022/02/21 01:32:55;;;;;;;1.27;0.80;;;;;;;7.36;43.64;91853.41;2052079;69;20178;-71
2022/02/21 01:35:20;;;;;;;1.92;1.00;;;;;;;7.09;44.67;91850.41;2064984;69;20150;-71
2022/02/21 01:37:46;;;;;;;1.02;0.80;;;;;;;7.28;44.14;91844.53;2051960;69;20212;-71
2022/02/21 01:40:12;;;;;;;1.05;0.80;;;;;;;7.22;44.54;91833.00;2065194;69;20146;-70
2022/02/21 01:42:38;;;;;;;1.58;0.90;;;;;;;7.09;44.88;91809.16;2052520;70;20178;-71
2022/02/21 01:45:04;;;;;;;2.28;0.90;;;;;;;7.26;44.35;91810.84;2052507;70;20561;-72
2022/02/21 01:47:30;;;;;;;1.00;0.77;;;;;;;7.16;44.07;91803.91;2052748;70;20153;-70
2022/02/21 01:49:56;;;;;;;0.95;0.80;;;;;;;7.38;43.29;91791.94;2052484;70;20138;-70
2022/02/21 01:52:21;;;;;;;1.23;0.80;;;;;;;7.33;43.07;91778.31;2052417;70;20151;-71
2022/02/21 01:54:47;;;;;;;0.90;0.63;;;;;;;7.52;42.26;91777.31;2052465;70;20156;-70
2022/02/21 01:57:13;;;;;;;1.02;0.70;;;;;;;7.63;42.87;91768.13;2065455;69;20149;-70
2022/02/21 01:59:40;;;;;;;0.75;0.60;;;;;;;7.65;43.04;91759.81;2052540;69;20131;-70
2022/02/21 02:02:07;;;;;;;1.35;0.80;;;;;;;7.68;42.55;91761.41;2052405;70;20185;-70
2022/02/21 02:04:33;;;;;;;1.13;0.60;;;;;;;7.70;42.58;91750.31;2052425;70;20241;-70
2022/02/21 02:07:01;;;;;;;0.80;0.73;;;;;;;7.63;42.67;91742.91;2052596;70;20204;-71
2022/02/21 02:09:27;;;;;;;0.68;0.68;;;;;;;7.48;43.10;91757.47;2052277;69;20157;-72
2022/02/21 02:11:53;;;;;;;1.15;0.75;;;;;;;7.29;43.52;91747.31;2052407;70;20229;-71
2022/02/21 02:14:30;;;;;;;1.13;0.80;;;;;;;7.41;43.84;91724.84;2052414;70;20150;-68
2022/02/21 02:17:00;;;;;;;2.67;0.70;;;;;;;7.22;44.41;91742.69;2052415;69;20139;-69
2022/02/21 02:19:25;;;;;;;0.88;0.70;;;;;;;7.16;44.49;91734.69;2064981;69;20142;-72
2022/02/21 02:21:55;;;;;;;1.02;0.80;;;;;;;7.08;44.17;91712.53;2052460;69;20145;-71
2022/02/21 02:24:23;;;;;;;1.20;0.88;;;;;;;7.20;43.89;91698.53;2052251;70;20683;-73
2022/02/21 02:26:52;;;;;;;1.20;0.85;;;;;;;7.38;43.17;91674.34;2052387;69;20161;-70
2022/02/21 02:29:19;;;;;;;0.85;0.70;;;;;;;6.98;43.65;91683.25;2052325;70;20186;-71
2022/02/21 02:31:44;;;;;;;0.82;0.63;;;;;;;7.44;42.64;91656.44;2052384;70;20231;-71
2022/02/21 02:34:10;;;;;;;2.30;0.70;;;;;;;7.45;42.83;91655.81;2065319;69;20146;-70
2022/02/21 02:36:35;;;;;;;1.63;0.80;;;;;;;7.45;42.19;91669.81;2052468;70;20657;-70
2022/02/21 02:39:01;;;;;;;0.75;0.50;;;;;;;7.35;43.81;91664.38;2052299;70;20216;-68
2022/02/21 02:41:27;;;;;;;1.88;0.82;;;;;;;7.20;43.96;91659.34;2065320;69;20615;-68
2022/02/21 02:43:52;;;;;;;0.80;0.80;;;;;;;7.03;44.80;91654.16;2052240;69;20166;-70
2022/02/21 02:46:18;;;;;;;1.00;0.90;;;;;;;7.11;44.22;91644.16;2065210;69;20142;-68
2022/02/21 02:48:43;;;;;;;0.98;0.70;;;;;;;7.07;44.95;91632.00;2052135;70;20208;-72
2022/02/21 02:51:09;;;;;;;2.88;1.50;;;;;;;7.12;44.50;91622.50;2052095;69;20221;-73
2022/02/21 02:53:35;;;;;;;3.30;1.50;;;;;;;6.95;45.57;91637.63;2052182;70;20585;-72
2022/02/21 02:56:00;;;;;;;1.48;1.00;;;;;;;6.84;45.54;91635.63;2052429;70;20151;-69
2022/02/21 02:58:26;;;;;;;0.85;0.75;;;;;;;6.78;45.83;91640.84;2065356;69;20147;-68
2022/02/21 03:00:52;;;;;;;1.33;0.90;;;;;;;6.89;45.55;91637.28;2052104;70;20154;-69
2022/02/21 03:03:18;;;;;;;2.25;1.00;;;;;;;6.85;45.20;91639.88;2052046;70;20162;-69
2022/02/21 03:05:44;;;;;;;2.05;0.80;;;;;;;6.87;45.57;91635.13;2062338;69;20142;-69
2022/02/21 03:08:09;;;;;;;1.33;0.85;;;;;;;6.72;45.66;91649.63;2051794;70;20504;-69
2022/02/21 03:10:35;;;;;;;2.17;0.70;;;;;;;6.95;44.55;91636.91;2052168;69;20202;-69
2022/02/21 03:13:00;;;;;;;1.63;0.90;;;;;;;6.94;44.90;91627.06;2052009;69;20269;-68
2022/02/21 03:15:26;;;;;;;1.42;0.80;;;;;;;6.88;45.61;91614.19;2052173;70;20138;-69
2022/02/21 03:17:52;;;;;;;2.80;1.13;;;;;;;6.49;46.43;91594.47;2052239;70;20178;-69
2022/02/21 03:20:18;;;;;;;1.02;0.80;;;;;;;6.74;45.76;91587.50;2052168;69;20239;-69
2022/02/21 03:22:44;;;;;;;1.65;0.90;;;;;;;6.76;44.96;91565.94;2052055;70;20146;-69
2022/02/21 03:25:13;;;;;;;1.15;0.70;;;;;;;6.51;45.62;91568.72;2052237;70;20592;-70
2022/02/21 03:27:42;;;;;;;3.00;1.00;;;;;;;6.63;46.14;91553.34;2052195;69;20230;-69
2022/02/21 03:30:09;;;;;;;3.88;0.85;;;;;;;6.45;47.01;91551.56;2052194;70;20150;-69
2022/02/21 03:32:35;;;;;;;3.40;1.40;;;;;;;6.71;46.44;91532.78;2052107;70;20173;-69
2022/02/21 03:35:00;;;;;;;0.88;0.70;;;;;;;6.39;46.93;91542.84;2052117;70;20151;-69
2022/02/21 03:37:26;;;;;;;1.98;0.90;;;;;;;6.50;46.68;91545.59;2052109;70;20142;-68
2022/02/21 03:39:51;;;;;;;1.48;0.90;;;;;;;6.72;45.60;91551.00;2051984;70;20157;-68
2022/02/21 03:42:18;;;;;;;2.33;0.80;;;;;;;6.58;46.63;91543.28;2052218;70;20162;-69
2022/02/21 03:44:43;;;;;;;2.75;0.80;;;;;;;6.81;45.61;91544.53;2052211;69;20153;-69
2022/02/21 03:47:09;;;;;;;0.98;0.88;;;;;;;6.85;45.45;91553.88;2052001;70;20162;-69
2022/02/21 03:49:35;;;;;;;3.25;1.50;;;;;;;6.89;44.95;91553.38;2065184;69;20138;-69
2022/02/21 03:52:00;;;;;;;0.95;0.70;;;;;;;6.72;45.03;91548.94;2052199;70;20185;-69
2022/02/21 03:54:26;;;;;;;2.25;0.98;;;;;;;6.85;44.85;91561.53;2052090;70;20175;-70
2022/02/21 03:56:52;;;;;;;2.25;0.70;;;;;;;6.90;44.73;91565.28;2052474;70;20153;-71
2022/02/21 03:59:17;;;;;;;0.98;0.70;;;;;;;6.99;44.65;91558.78;2052221;70;20165;-71
2022/02/21 04:01:43;;;;;;;3.65;1.95;;;;;;;7.00;44.71;91568.63;2052023;70;20180;-70
2022/02/21 04:04:08;;;;;;;4.80;3.13;;;;;;;7.06;44.18;91575.31;2052254;70;20192;-71
2022/02/21 04:06:34;;;;;;;3.38;2.10;;;;;;;7.05;45.21;91559.13;2052380;70;20499;-71
2022/02/21 04:08:59;;;;;;;3.13;1.77;;;;;;;7.06;45.84;91563.41;2065076;69;20173;-70
2022/02/21 04:11:25;;;;;;;2.58;1.67;;;;;;;6.85;45.29;91565.06;2052212;70;20153;-70
2022/02/21 04:13:51;;;;;;;3.03;1.85;;;;;;;6.90;45.68;91552.03;2052272;70;20161;-69
2022/02/21 04:16:16;;;;;;;4.22;1.90;;;;;;;6.94;45.29;91557.13;2052307;70;20146;-71
2022/02/21 04:18:42;;;;;;;3.58;1.80;;;;;;;6.80;45.32;91554.25;2052223;70;20590;-70
2022/02/21 04:21:08;;;;;;;2.55;1.65;;;;;;;6.66;46.01;91562.59;2052264;70;20177;-70
2022/02/21 04:23:33;;;;;;;2.85;1.90;;;;;;;6.86;45.76;91585.38;2065114;69;20153;-74
2022/02/21 04:25:59;;;;;;;2.40;1.00;;;;;;;6.89;45.26;91584.16;2052238;70;20146;-72
2022/02/21 04:28:24;;;;;;;5.15;2.83;;;;;;;6.98;45.66;91572.06;2065284;69;20142;-72
2022/02/21 04:30:50;;;;;;;5.10;2.85;;;;;;;6.91;45.20;91572.31;2052194;70;20668;-72
2022/02/21 04:33:16;;;;;;;1.83;1.10;;;;;;;6.12;48.39;91569.28;2052190;70;20150;-71
2022/02/21 04:35:41;;;;;;;4.18;1.75;;;;;;;6.48;48.05;91569.94;2065161;69;20677;-71
2022/02/21 04:38:07;;;;;;;2.63;1.33;;;;;;;6.83;46.21;91570.56;2052136;70;20154;-72
2022/02/21 04:40:32;;;;;;;3.40;1.58;;;;;;;6.78;46.70;91562.53;2052196;70;20199;-72
2022/02/21 04:42:58;;;;;;;4.07;1.38;;;;;;;6.79;46.94;91564.72;2052188;69;20641;-73
2022/02/21 04:45:24;;;;;;;2.22;1.40;;;;;;;6.90;46.81;91548.50;2052180;70;20241;-72
2022/02/21 04:47:51;;;;;;;4.20;1.67;;;;;;;6.68;47.53;91564.75;2052232;70;20217;-70
2022/02/21 04:50:18;;;;;;;5.00;2.00;;;;;;;6.52;47.11;91565.31;2052187;70;20236;-70
2022/02/21 04:52:44;;;;;;;13.40;4.88;;;;;;;6.69;46.80;91564.16;2051990;70;20272;-69
2022/02/21 04:55:12;;;;;;;7.40;3.25;;;;;;;6.86;46.72;91555.31;2065067;69;20201;-70
2022/02/21 04:57:38;;;;;;;5.05;2.63;;;;;;;6.98;46.12;91562.94;2052100;69;20147;-70
2022/02/21 05:00:07;;;;;;;6.80;1.83;;;;;;;6.80;46.84;91559.84;2052129;70;20133;-70
2022/02/21 05:02:32;;;;;;;11.15;2.85;;;;;;;6.56;47.46;91559.22;2052123;70;20621;-70
2022/02/21 05:04:59;;;;;;;5.00;2.38;;;;;;;7.00;46.43;91543.47;2052125;70;20264;-69
2022/02/21 05:07:25;;;;;;;2.83;1.98;;;;;;;6.97;46.82;91531.44;2052063;70;20157;-69
2022/02/21 05:09:51;;;;;;;6.10;3.38;;;;;;;6.24;48.58;91533.66;2052026;70;20583;-70
2022/02/21 05:12:16;;;;;;;5.65;3.17;;;;;;;6.66;47.06;91540.22;2052034;70;20602;-72
2022/02/21 05:14:43;;;;;;;5.72;2.58;;;;;;;7.00;45.92;91530.19;2051973;70;20157;-71
2022/02/21 05:17:08;;;;;;;3.95;1.95;;;;;;;7.02;45.89;91524.72;2052093;70;20621;-70
2022/02/21 05:19:34;;;;;;;6.22;2.00;;;;;;;7.03;45.69;91522.66;2052155;70;20154;-70
2022/02/21 05:22:00;;;;;;;6.35;2.00;;;;;;;7.09;45.50;91528.56;2052111;70;20158;-70
2022/02/21 05:24:26;;;;;;;2.63;1.50;;;;;;;6.68;46.73;91550.78;2052002;70;20147;-70
2022/02/21 05:26:52;;;;;;;3.50;1.80;;;;;;;6.75;46.58;91555.38;2052084;70;20353;-69
2022/02/21 05:29:18;;;;;;;3.92;1.50;;;;;;;6.81;47.07;91566.91;2052198;70;20312;-70
2022/02/21 05:31:44;;;;;;;3.83;1.70;;;;;;;6.92;46.01;91563.34;2052040;69;20590;-72
2022/02/21 05:34:09;;;;;;;5.15;2.30;;;;;;;6.92;45.71;91576.56;2052166;70;20574;-73
2022/02/21 05:36:35;;;;;;;4.75;2.10;;;;;;;6.51;47.09;91585.50;2065048;69;20244;-73
2022/02/21 05:39:01;;;;;;;7.90;3.67;;;;;;;6.26;48.13;91581.28;2051986;70;20245;-72
2022/02/21 05:41:26;;;;;;;4.75;2.75;;;;;;;6.69;46.83;91589.34;2052024;70;20564;-75
2022/02/21 05:43:52;;;;;;;4.35;2.55;;;;;;;6.58;47.37;91578.91;2052045;69;20290;-71
2022/02/21 05:46:18;;;;;;;4.32;2.70;;;;;;;6.60;46.67;91579.75;2052036;70;20210;-73
2022/02/21 05:48:43;;;;;;;4.45;2.35;;;;;;;6.93;45.61;91573.19;2052049;70;20141;-71
2022/02/21 05:51:09;;;;;;;6.85;2.60;;;;;;;6.76;46.21;91551.22;2052102;70;20546;-70
2022/02/21 05:53:34;;;;;;;3.85;2.20;;;;;;;6.95;45.34;91527.78;2051891;70;20162;-72
2022/02/21 05:56:00;;;;;;;1.85;1.20;;;;;;;7.00;45.55;91527.38;2065061;69;20276;-71
2022/02/21 05:58:26;;;;;;;2.25;1.15;;;;;;;6.86;45.58;91521.75;2052022;70;20215;-71
2022/02/21 06:00:51;;;;;;;4.78;1.30;;;;;;;7.12;44.56;91491.69;2052003;70;20150;-69
2022/02/21 06:03:17;;;;;;;3.17;1.30;;;;;;;7.09;44.34;91455.81;2051987;70;20597;-69
2022/02/21 06:05:46;;;;;;;1.55;1.00;;;;;;;7.22;44.77;91426.41;2052055;70;20237;-74
2022/02/21 06:08:12;;;;;;;1.77;0.90;;;;;;;7.20;45.77;91420.72;2051881;70;20166;-69
2022/02/21 06:10:38;;;;;;;2.05;1.25;;;;;;;7.02;46.81;91426.06;2067680;69;20179;-70
2022/02/21 06:13:04;;;;;;;5.65;1.92;;;;;;;6.97;46.42;91419.53;2068127;69;20148;-73
2022/02/21 06:15:30;;;;;;;2.40;1.48;;;;;;;7.11;45.45;91408.34;2067796;69;20171;-74
2022/02/21 06:17:58;;;;;;;2.53;1.80;;;;;;;6.96;46.07;91400.53;2068351;69;20156;-72
2022/02/21 06:20:25;;;;;;;7.65;3.40;;;;;;;7.03;45.64;91411.44;2068319;69;20167;-74
2022/02/21 06:22:50;;;;;;;5.93;2.95;;;;;;;7.10;45.43;91418.06;2068130;69;20604;-74
2022/02/21 06:25:16;;;;;;;7.13;3.20;;;;;;;6.86;47.06;91414.72;2067830;69;20151;-73
2022/02/21 06:27:41;;;;;;;4.35;2.30;;;;;;;6.97;46.26;91399.22;2068702;69;20152;-71
2022/02/21 06:30:08;;;;;;;4.05;2.35;;;;;;;7.11;45.60;91392.28;2068796;69;20144;-72
2022/02/21 06:32:34;;;;;;;9.02;4.35;;;;;;;6.74;47.30;91384.03;2068907;69;20184;-72
2022/02/21 06:34:59;;;;;;;20.77;8.65;;;;;;;6.77;47.47;91366.00;2068690;69;20253;-70
2022/02/21 06:37:25;;;;;;;5.50;3.15;;;;;;;7.02;46.74;91359.63;2068565;69;20189;-73
2022/02/21 06:39:51;;;;;;;3.67;2.28;;;;;;;7.14;45.29;91362.31;2068645;69;20137;-72
2022/02/21 06:42:16;;;;;;;3.25;2.03;;;;;;;7.16;45.33;91362.44;2068609;69;20615;-72
2022/02/21 06:44:42;;;;;;;8.73;2.75;;;;;;;7.30;44.61;91357.56;2068321;69;20226;-72
2022/02/21 06:47:07;;;;;;;4.10;2.40;;;;;;;7.35;43.56;91352.91;2068613;69;20160;-72
2022/02/21 06:49:33;;;;;;;7.78;2.50;;;;;;;7.58;43.98;91349.16;2068651;69;20300;-72
2022/02/21 06:51:59;;;;;;;5.43;2.03;;;;;;;7.44;44.21;91357.56;2068622;69;20217;-72
2022/02/21 06:54:26;;;;;;;5.25;2.03;;;;;;;7.49;43.33;91367.63;2068536;69;20228;-74
2022/02/21 06:56:53;;;;;;;2.72;1.77;;;;;;;7.60;42.67;91386.38;2068637;69;20588;-76
2022/02/21 06:59:18;;;;;;;4.68;2.22;;;;;;;7.63;42.35;91362.00;2068583;69;20255;-72
2022/02/21 07:01:44;;;;;;;7.22;4.22;;;;;;;7.86;42.50;91377.84;2068566;69;20148;-72
2022/02/21 07:04:10;;;;;;;11.40;6.55;;;;;;;7.53;42.65;91376.22;2068027;69;20149;-72
2022/02/21 07:06:36;;;;;;;8.57;3.45;;;;;;;7.62;43.59;91382.97;2068803;69;20176;-72
2022/02/21 07:09:04;;;;;;;7.28;2.38;;;;;;;7.86;43.22;91356.13;2066553;69;20175;-73
2022/02/21 07:11:30;;;;;;;4.10;2.30;;;;;;;7.89;43.08;91343.69;2052399;70;20153;-73
2022/02/21 07:13:56;;;;;;;6.43;2.10;;;;;;;8.02;43.15;91333.06;2052477;70;20275;-72
2022/02/21 07:16:21;;;;;;;4.40;1.40;;;;;;;8.04;41.97;91324.75;2052331;70;20138;-73
2022/02/21 07:18:47;;;;;;;2.83;1.38;;;;;;;8.22;42.14;91331.22;2065265;69;20173;-73
2022/02/21 07:21:13;;;;;;;5.70;2.78;;;;;;;8.19;42.24;91293.22;2052372;70;20146;-73
2022/02/21 07:23:38;;;;;;;8.23;3.90;;;;;;;8.14;42.50;91281.09;2052308;70;20162;-73
2022/02/21 07:26:04;;;;;;;9.20;3.47;;;;;;;8.30;42.36;91277.63;2052445;70;20682;-72
2022/02/21 07:28:30;;;;;;;9.00;2.70;;;;;;;8.26;44.12;91283.75;2052336;70;20678;-72
2022/02/21 07:30:56;;;;;;;7.50;3.30;;;;;;;8.05;44.16;91296.09;2052301;70;20211;-72
2022/02/21 07:33:22;;;;;;;9.57;2.80;;;;;;;8.24;43.84;91306.06;2052347;70;20526;-72
2022/02/21 07:35:47;;;;;;;8.77;2.83;;;;;;;8.39;43.25;91350.28;2052433;70;20250;-72
2022/02/21 07:38:13;;;;;;;6.35;2.00;;;;;;;8.01;44.87;91363.16;2052077;70;20200;-73
2022/02/21 07:40:39;;;;;;;4.57;1.30;;;;;;;8.18;45.26;91387.09;2052353;70;20170;-71
2022/02/21 07:43:05;;;;;;;3.42;1.10;;;;;;;8.26;45.14;91421.13;2052301;70;20224;-72
2022/02/21 07:45:31;;;;;;;2.20;1.00;;;;;;;8.26;45.57;91474.41;2052258;70;20157;-72
2022/02/21 07:47:58;;;;;;;0.60;0.52;;;;;;;8.10;47.59;91490.41;2052253;70;20178;-71
2022/02/21 07:50:26;;;;;;;0.10;0.10;;;;;;;7.52;49.55;91548.41;2052400;70;20534;-72
2022/02/21 07:52:53;;;;;;;0.30;0.20;;;;;;;7.52;50.07;91564.47;2052145;70;20156;-72
2022/02/21 07:55:19;;;;;;;0.20;0.20;;;;;;;6.82;53.15;91601.91;2052335;70;20174;-71
2022/02/21 07:57:45;;;;;;;0.47;0.30;;;;;;;7.12;52.77;91628.81;2052232;69;20138;-73
2022/02/21 08:00:13;;;;;;;1.08;0.50;;;;;;;6.65;55.85;91664.59;2052213;70;20554;-71
2022/02/21 08:02:41;;;;;;;0.20;0.20;;;;;;;6.58;55.99;91679.56;2052182;70;20154;-70
2022/02/21 08:05:07;;;;;;;1.55;0.20;;;;;;;5.68;60.41;91738.41;2052265;69;20151;-71
2022/02/21 08:07:34;;;;;;;0.35;0.20;;;;;;;6.41;58.00;91800.16;2065115;69;20679;-71
2022/02/21 08:10:00;;;;;;;0.30;0.30;;;;;;;6.28;59.31;91821.78;2052295;70;20228;-71
2022/02/21 08:12:26;;;;;;;1.08;0.60;;;;;;;6.09;62.19;91852.69;2052171;69;20134;-71
2022/02/21 08:14:52;;;;;;;2.45;1.00;;;;;;;6.08;61.42;91881.97;2065218;69;20517;-70
2022/02/21 08:17:19;;;;;;;0.50;0.43;;;;;;;6.33;59.97;91879.38;2052253;70;20216;-71
2022/02/21 08:19:46;;;;;;;1.17;0.40;;;;;;;6.44;60.61;91889.13;2064995;69;20206;-70
2022/02/21 08:22:12;;;;;;;0.63;0.32;;;;;;;6.16;60.60;91904.13;2052143;70;20158;-70
2022/02/21 08:24:37;;;;;;;0.70;0.70;;;;;;;6.17;60.56;91903.50;2052162;70;20200;-70
2022/02/21 08:27:03;;;;;;;1.27;0.20;;;;;;;5.95;60.11;91908.38;2052172;69;20688;-70
2022/02/21 08:29:29;;;;;;;2.30;0.30;;;;;;;6.10;58.69;91908.00;2052186;69;20148;-71
2022/02/21 08:31:55;;;;;;;0.85;0.40;;;;;;;6.20;59.54;91915.56;2052189;70;20521;-70
2022/02/21 08:34:22;;;;;;;1.00;0.40;;;;;;;6.41;58.87;91904.31;2052190;70;20155;-70
2022/02/21 08:36:48;;;;;;;0.98;0.38;;;;;;;6.18;61.68;91923.78;2052207;70;20149;-70
2022/02/21 08:39:14;;;;;;;0.30;0.30;;;;;;;6.33;61.97;91920.59;2052091;70;20146;-70
2022/02/21 08:41:40;;;;;;;0.17;0.17;;;;;;;6.33;62.86;91926.19;2052181;70;20142;-70
2022/02/21 08:44:05;;;;;;;0.20;0.20;;;;;;;6.13;62.66;91931.19;2052331;70;20153;-70
2022/02/21 08:46:31;;;;;;;0.15;0.15;;;;;;;6.21;64.41;91951.28;2052168;69;20284;-71
2022/02/21 08:48:58;;;;;;;0.40;0.20;;;;;;;6.28;64.17;91946.81;2051972;70;20146;-71
2022/02/21 08:51:25;;;;;;;0.30;0.30;;;;;;;6.16;64.16;91957.94;2052240;70;20690;-69
2022/02/21 08:53:51;;;;;;;0.20;0.20;;;;;;;6.39;63.97;91965.69;2052027;70;20170;-70
2022/02/21 08:56:17;;;;;;;0.30;0.30;;;;;;;6.43;64.65;91954.78;2052254;70;20241;-70
2022/02/21 08:58:42;;;;;;;0.35;0.35;;;;;;;6.63;62.23;91935.75;2052350;70;20158;-71
2022/02/21 09:01:08;;;;;;;0.35;0.20;;;;;;;6.73;62.87;91949.63;2052129;70;20155;-71
2022/02/21 09:03:34;;;;;;;0.52;0.30;;;;;;;6.66;64.40;91981.34;2052148;70;20142;-71
2022/02/21 09:05:59;;;;;;;0.63;0.60;;;;;;;6.87;61.79;92003.66;2052137;70;20154;-71
2022/02/21 09:08:25;;;;;;;1.63;0.60;;;;;;;7.00;58.60;91997.50;2052029;70;20139;-71
2022/02/21 09:10:52;;;;;;;0.95;0.70;;;;;;;6.95;60.06;91995.06;2052094;70;20181;-71
2022/02/21 09:13:17;;;;;;;3.60;0.55;;;;;;;6.87;59.34;92006.47;2065056;69;20165;-71
2022/02/21 09:15:43;;;;;;;0.75;0.38;;;;;;;6.90;57.95;92018.53;2052204;69;20162;-71
2022/02/21 09:18:09;;;;;;;0.95;0.75;;;;;;;6.90;58.23;92015.72;2052100;70;20154;-71
2022/02/21 09:20:36;;;;;;;0.60;0.60;;;;;;;7.21;58.62;92024.69;2052114;70;20134;-70
2022/02/21 09:23:03;;;;;;;0.57;0.40;;;;;;;7.29;59.26;92032.88;2052082;70;20219;-71
2022/02/21 09:25:29;;;;;;;0.80;0.40;;;;;;;7.21;60.56;92027.50;2064914;69;20270;-71
2022/02/21 09:27:55;;;;;;;2.03;0.57;;;;;;;7.21;58.15;92035.88;2052091;70;20606;-72
2022/02/21 09:30:21;;;;;;;0.60;0.47;;;;;;;6.58;54.91;92046.63;2052070;70;20147;-71
2022/02/21 09:32:47;;;;;;;1.67;0.70;;;;;;;6.48;54.41;92062.75;2051861;69;20620;-71
2022/02/21 09:35:13;;;;;;;15.68;8.98;;;;;;;6.46;57.18;92070.25;2051958;70;20174;-71
2022/02/21 09:37:40;;;;;;;8.93;4.97;;;;;;;6.91;56.24;92071.06;2051956;70;20169;-70
2022/02/21 09:40:09;;;;;;;3.60;1.60;;;;;;;7.11;57.42;92066.03;2052050;70;20185;-70
2022/02/21 09:42:36;;;;;;;1.40;0.70;;;;;;;7.24;57.47;92070.31;2065028;69;20594;-70
2022/02/21 09:45:03;;;;;;;1.63;0.70;;;;;;;7.35;58.29;92067.56;2052055;69;20203;-70
2022/02/21 09:47:30;;;;;;;1.52;1.10;;;;;;;7.23;56.18;92060.47;2052047;70;20184;-70
2022/02/21 09:49:56;;;;;;;1.60;1.30;;;;;;;7.27;54.59;92053.06;2052054;70;20165;-70
2022/02/21 09:52:22;;;;;;;1.02;0.90;;;;;;;7.39;56.71;92041.88;2051959;70;20143;-71
2022/02/21 09:54:47;;;;;;;2.70;0.90;;;;;;;7.38;57.56;92046.03;2051900;70;20578;-71
2022/02/21 09:57:16;;;;;;;1.95;0.80;;;;;;;7.44;59.08;92056.88;2051956;70;20241;-71
2022/02/21 09:59:43;;;;;;;0.65;0.40;;;;;;;7.02;49.01;92055.69;2052087;70;20147;-71
2022/02/21 10:02:17;;;;;;;0.77;0.35;;;;;;;7.34;51.50;92057.69;2052506;69;20640;-70
2022/02/21 10:04:43;;;;;;;0.63;0.40;;;;;;;7.44;55.19;92070.88;2052495;70;20138;-71
2022/02/21 10:07:09;;;;;;;0.68;0.50;;;;;;;7.34;55.10;92068.19;2052501;70;20696;-70
2022/02/21 10:09:42;;;;;;;0.55;0.40;;;;;;;7.37;51.71;92042.47;2052321;70;20154;-70
2022/02/21 10:12:21;;;;;;;0.40;0.20;;;;;;;7.42;50.36;92034.31;2052509;69;20154;-71
2022/02/21 10:14:47;;;;;;;0.60;0.30;;;;;;;7.13;48.72;92040.97;2065458;69;20138;-74
2022/02/21 10:17:14;;;;;;;0.20;0.20;;;;;;;7.31;47.86;92042.09;2052475;70;20146;-71
2022/02/21 10:19:42;;;;;;;0.20;0.20;;;;;;;7.46;48.45;92049.31;2052592;70;20150;-73
2022/02/21 10:22:10;;;;;;;0.30;0.30;;;;;;;7.90;47.51;92056.91;2065470;69;20241;-70
2022/02/21 10:24:42;;;;;;;2.00;0.40;;;;;;;8.41;48.02;92067.59;2052373;70;20143;-70
2022/02/21 10:27:13;;;;;;;2.20;0.98;;;;;;;8.69;46.15;92065.69;2052511;70;20154;-73
2022/02/21 10:30:01;;;;;;;4.95;1.85;;;;;;;8.22;45.56;92073.47;2052565;70;20253;-73
2022/02/21 10:32:31;;;;;;;1.58;0.82;;;;;;;7.94;45.79;92066.91;2052350;70;20150;-71
2022/02/21 10:35:20;;;;;;;0.88;0.50;;;;;;;8.42;46.23;92068.31;2052393;70;20541;-71
2022/02/21 10:37:50;;;;;;;0.70;0.70;;;;;;;9.47;45.82;92067.19;2052260;69;20169;-71
2022/02/21 10:40:25;;;;;;;5.28;1.50;;;;;;;7.95;46.29;92065.53;2052098;70;20157;-70
2022/02/21 10:43:11;;;;;;;3.17;0.80;;;;;;;8.25;46.80;92055.41;2052348;70;20686;-72
2022/02/21 10:45:38;;;;;;;0.63;0.60;;;;;;;8.75;46.01;92051.28;2052399;70;20238;-70
2022/02/21 10:48:16;;;;;;;1.15;0.80;;;;;;;9.22;44.06;92057.44;2052408;70;20241;-72
2022/02/21 10:50:59;;;;;;;1.02;0.90;;;;;;;9.91;44.21;92047.09;2052519;70;20150;-71
2022/02/21 10:53:39;;;;;;;2.13;1.40;;;;;;;10.13;41.98;92047.56;2052269;70;20154;-71
2022/02/21 10:56:05;;;;;;;1.15;0.60;;;;;;;10.81;40.00;92042.50;2052594;70;20170;-70
2022/02/21 10:58:30;;;;;;;1.50;0.60;;;;;;;12.00;39.86;92034.69;2052356;70;20219;-73
2022/02/21 11:00:57;;;;;;;0.40;0.40;;;;;;;12.38;38.86;92024.41;2052509;70;20161;-71
2022/02/21 11:03:24;;;;;;;1.00;0.50;;;;;;;12.18;38.04;92016.47;2052391;70;20150;-73
2022/02/21 11:05:51;;;;;;;0.52;0.50;;;;;;;11.73;38.06;92022.22;2052390;70;20173;-71
2022/02/21 11:08:20;;;;;;;1.20;1.00;;;;;;;11.50;39.36;92030.97;2052306;70;20201;-71
2022/02/21 11:10:55;;;;;;;1.13;0.75;;;;;;;12.23;38.77;92023.03;2052347;70;20219;-72
2022/02/21 11:13:21;;;;;;;0.47;0.40;;;;;;;13.86;34.73;92017.66;2052356;70;20572;-75
2022/02/21 11:15:50;;;;;;;0.82;0.60;;;;;;;15.45;35.90;92017.53;2051948;70;20587;-72
2022/02/21 11:18:17;;;;;;;0.60;0.50;;;;;;;16.48;34.33;92010.69;2052421;70;20150;-71
2022/02/21 11:20:46;;;;;;;0.80;0.50;;;;;;;17.74;30.74;92004.72;2052432;70;20143;-72
2022/02/21 11:23:14;;;;;;;2.67;0.50;;;;;;;18.61;26.68;92014.44;2052252;70;20151;-72
2022/02/21 11:25:56;;;;;;;0.77;0.40;;;;;;;19.60;28.33;92009.13;2062586;69;20258;-76
2022/02/21 11:28:25;;;;;;;0.80;0.67;;;;;;;15.45;24.89;91994.84;2052462;70;20216;-72
2022/02/21 11:30:54;;;;;;;2.42;1.65;;;;;;;16.96;22.11;91993.53;2052329;70;20752;-73
2022/02/21 11:33:20;;;;;;;1.27;0.50;;;;;;;16.21;21.38;91983.63;2052245;70;20138;-74
2022/02/21 11:36:08;;;;;;;0.50;0.40;;;;;;;15.69;24.63;91987.09;2052340;70;20520;-72
2022/02/21 11:38:36;;;;;;;0.90;0.70;;;;;;;17.53;20.09;91984.28;2052352;70;20744;-72